Costa Marques, Brazil
Current Conditions -  °F | °C
As of 6:00 AM on Monday 26 Jan 2015 (Local Time) from SLTR Reporting Station
Broken Clouds Broken Clouds  
Wind Chill: 77°   Ceiling: 20000
Heat Index: 78°   Visibility: 6mi
Dew Point: 75°   Wind: 0mph
Humidity: 94%   Direction: NA
Pressure: 29.85"   Gusts: NA
Location:  12.45°S, 64.23°W
Report Text: SLTR 261000Z 00000KT 9999 FEW004 SCT080 BKN200 25/24 Q1011
Loading
Personal Weather Stations






























Interactive Weather Map New forecast layout! Learn more

10-Day Weather Forecast

Advertisements
Track Severe Weather on mobile